createdAt,value
2018-04-19T00:00:48.343Z,99.90
2018-04-19T00:03:16.310Z,99.90
2018-04-19T00:05:44.282Z,99.90
2018-04-19T00:08:11.896Z,99.90
2018-04-19T00:10:39.491Z,99.90
2018-04-19T00:13:07.007Z,99.90
2018-04-19T00:15:34.498Z,99.90
2018-04-19T00:18:02.091Z,99.90
2018-04-19T00:20:29.600Z,99.90
2018-04-19T00:22:57.102Z,99.90
2018-04-19T00:25:24.609Z,99.90
2018-04-19T00:27:52.102Z,99.90
2018-04-19T00:30:19.592Z,99.90
2018-04-19T00:32:47.481Z,99.90
2018-04-19T00:35:14.969Z,99.90
2018-04-19T00:37:42.943Z,99.90
2018-04-19T00:40:10.516Z,99.90
2018-04-19T00:42:38.030Z,99.90
2018-04-19T00:45:06.374Z,99.90
2018-04-19T00:47:33.883Z,99.90
2018-04-19T00:50:02.221Z,99.90
2018-04-19T00:52:41.962Z,99.90
2018-04-19T00:55:09.463Z,99.90
2018-04-19T00:57:38.494Z,99.90
2018-04-19T01:00:06.064Z,99.90
2018-04-19T01:02:34.352Z,99.90
2018-04-19T01:05:01.848Z,99.90
2018-04-19T01:07:29.351Z,99.90
2018-04-19T01:09:56.849Z,99.90
2018-04-19T01:12:24.420Z,99.90
2018-04-19T01:14:52.005Z,99.90
2018-04-19T01:17:20.352Z,99.90
2018-04-19T01:19:47.953Z,99.90
2018-04-19T01:22:16.251Z,99.90
2018-04-19T01:24:44.517Z,99.90
2018-04-19T01:27:12.089Z,99.90
2018-04-19T01:29:40.056Z,99.90
2018-04-19T01:32:07.641Z,99.90
2018-04-19T01:34:35.138Z,99.90
2018-04-19T01:37:03.405Z,99.90
2018-04-19T01:39:31.380Z,99.90
2018-04-19T01:41:59.648Z,99.90
2018-04-19T01:44:27.135Z,99.90
2018-04-19T01:46:54.714Z,99.90
2018-04-19T01:49:23.070Z,99.90
2018-04-19T01:51:50.526Z,99.90
2018-04-19T01:54:18.726Z,99.90
2018-04-19T01:56:46.154Z,99.90
2018-04-19T01:59:14.361Z,99.90
2018-04-19T02:01:41.808Z,99.90
2018-04-19T02:04:09.237Z,99.90
2018-04-19T02:06:36.673Z,99.90
2018-04-19T02:09:04.110Z,99.90
2018-04-19T02:11:31.540Z,99.90
2018-04-19T02:13:58.978Z,99.90
2018-04-19T02:16:26.412Z,99.90
2018-04-19T02:18:53.841Z,99.90
2018-04-19T02:21:21.286Z,99.90
2018-04-19T02:23:49.492Z,99.90
2018-04-19T02:26:16.921Z,99.90
2018-04-19T02:28:44.380Z,99.90
2018-04-19T02:31:11.829Z,99.90
2018-04-19T02:33:39.663Z,99.90
2018-04-19T02:36:08.600Z,99.90
2018-04-19T02:38:36.805Z,99.90
2018-04-19T02:41:04.249Z,99.90
2018-04-19T02:43:31.704Z,99.90
2018-04-19T02:45:59.116Z,99.90
2018-04-19T02:48:26.565Z,99.90
2018-04-19T02:50:54.394Z,99.90
2018-04-19T02:53:21.844Z,99.90
2018-04-19T02:55:49.273Z,99.90
2018-04-19T02:58:17.488Z,99.90
2018-04-19T03:00:44.918Z,99.90
2018-04-19T03:03:13.133Z,99.90
2018-04-19T03:05:40.576Z,99.90
2018-04-19T03:08:08.780Z,99.90
2018-04-19T03:10:36.986Z,99.90
2018-04-19T03:13:04.421Z,99.90
2018-04-19T03:15:31.865Z,99.90
2018-04-19T03:17:59.309Z,99.90
2018-04-19T03:20:26.748Z,99.90
2018-04-19T03:22:54.189Z,99.90
2018-04-19T03:25:22.396Z,99.90
2018-04-19T03:27:49.844Z,99.90
2018-04-19T03:30:18.072Z,99.90
2018-04-19T03:32:45.513Z,99.90
2018-04-19T03:35:12.957Z,99.90
2018-04-19T03:37:41.164Z,99.90
2018-04-19T03:40:08.992Z,99.90
2018-04-19T03:42:36.449Z,99.90
2018-04-19T03:45:03.893Z,99.90
2018-04-19T03:47:31.343Z,99.90
2018-04-19T03:49:58.781Z,99.90
2018-04-19T03:52:27.099Z,99.90
2018-04-19T03:54:55.301Z,99.90
2018-04-19T03:57:22.754Z,99.90
2018-04-19T03:59:50.183Z,99.90
2018-04-19T04:02:17.648Z,99.90
2018-04-19T04:04:45.485Z,99.90
2018-04-19T04:07:12.954Z,99.90
2018-04-19T04:09:40.409Z,99.90
2018-04-19T04:12:07.878Z,99.90
2018-04-19T04:14:35.338Z,99.90
2018-04-19T04:17:14.588Z,99.90
2018-04-19T04:19:53.903Z,99.90
2018-04-19T04:22:33.987Z,99.90
2018-04-19T04:25:02.181Z,99.90
2018-04-19T04:27:29.627Z,99.90
2018-04-19T04:29:57.831Z,99.90
2018-04-19T04:32:25.304Z,99.90
2018-04-19T04:34:52.749Z,99.90
2018-04-19T04:37:20.957Z,99.90
2018-04-19T04:39:48.393Z,99.90
2018-04-19T04:42:16.230Z,99.90
2018-04-19T04:44:43.687Z,99.90
2018-04-19T04:47:11.116Z,99.90
2018-04-19T04:49:39.329Z,99.90
2018-04-19T04:52:06.777Z,99.90
2018-04-19T04:54:34.206Z,99.90
2018-04-19T04:57:02.415Z,99.90
2018-04-19T04:59:30.245Z,99.90
2018-04-19T05:01:57.689Z,99.90
2018-04-19T05:04:25.129Z,99.90
2018-04-19T05:06:53.337Z,99.90
2018-04-19T05:09:21.541Z,99.90
2018-04-19T05:11:48.989Z,99.90
2018-04-19T05:14:16.465Z,99.90
2018-04-19T05:16:43.922Z,99.90
2018-04-19T05:19:11.359Z,99.90
2018-04-19T05:21:38.812Z,99.90
2018-04-19T05:24:06.237Z,99.90
2018-04-19T05:26:33.685Z,99.90
2018-04-19T05:29:01.895Z,99.90
2018-04-19T05:31:29.328Z,99.90
2018-04-19T05:33:57.543Z,99.90
2018-04-19T05:36:24.992Z,99.90
2018-04-19T05:38:52.448Z,99.90
2018-04-19T05:41:20.276Z,99.90
2018-04-19T05:43:47.817Z,99.90
2018-04-19T05:46:15.255Z,99.90
2018-04-19T05:48:42.699Z,99.90
2018-04-19T05:51:10.147Z,99.90
2018-04-19T05:53:37.597Z,99.90
2018-04-19T05:56:05.798Z,99.90
2018-04-19T05:58:33.242Z,99.90
2018-04-19T06:01:00.684Z,99.90
2018-04-19T06:03:28.896Z,99.90
2018-04-19T06:05:56.765Z,99.90
2018-04-19T06:08:24.218Z,99.90
2018-04-19T06:10:52.412Z,99.90
2018-04-19T06:13:19.880Z,99.90
2018-04-19T06:15:47.328Z,99.90
2018-04-19T06:18:14.771Z,99.90
2018-04-19T06:20:42.211Z,99.90
2018-04-19T06:23:10.429Z,99.90
2018-04-19T06:25:38.259Z,99.90
2018-04-19T06:28:05.706Z,99.90
2018-04-19T06:30:33.904Z,99.90
2018-04-19T06:33:01.354Z,99.90
2018-04-19T06:35:29.559Z,99.90
2018-04-19T06:37:57.027Z,99.90
2018-04-19T06:40:24.452Z,99.90
2018-04-19T06:42:51.893Z,99.90
2018-04-19T06:45:19.333Z,99.90
2018-04-19T06:47:46.764Z,99.90
2018-04-19T06:50:14.211Z,99.90
2018-04-19T06:52:42.429Z,99.90
2018-04-19T06:55:10.640Z,99.90
2018-04-19T06:57:38.477Z,99.90
2018-04-19T07:00:05.913Z,99.90
2018-04-19T07:02:33.353Z,99.90
2018-04-19T07:05:00.792Z,99.90
2018-04-19T07:07:29.008Z,99.90
2018-04-19T07:09:56.439Z,99.90
2018-04-19T07:12:24.284Z,99.90
2018-04-19T07:14:52.119Z,98.80
2018-04-19T07:17:19.556Z,99.90
2018-04-19T07:19:46.985Z,97.90
2018-04-19T07:22:14.429Z,97.30
2018-04-19T07:24:42.634Z,96.70
2018-04-19T07:27:10.081Z,96.30
2018-04-19T07:29:37.513Z,95.40
2018-04-19T07:32:05.370Z,94.00
2018-04-19T07:34:32.807Z,93.90
2018-04-19T07:37:00.256Z,93.20
2018-04-19T07:39:27.681Z,91.90
2018-04-19T07:41:56.639Z,91.10
2018-04-19T07:44:24.072Z,90.70
2018-04-19T07:46:52.272Z,91.20
2018-04-19T07:49:20.471Z,89.80
2018-04-19T07:51:47.925Z,90.00
2018-04-19T07:54:16.131Z,89.00
2018-04-19T07:56:43.952Z,86.40
2018-04-19T07:59:11.784Z,85.50
2018-04-19T08:01:39.622Z,86.40
2018-04-19T08:04:07.061Z,86.30
2018-04-19T08:06:34.500Z,84.80
2018-04-19T08:09:01.932Z,84.60
2018-04-19T08:11:30.168Z,82.20
2018-04-19T08:13:57.565Z,80.80
2018-04-19T08:16:25.025Z,79.90
2018-04-19T08:18:52.472Z,80.60
2018-04-19T08:21:19.939Z,76.80
2018-04-19T08:23:47.389Z,77.40
2018-04-19T08:26:14.820Z,76.90
2018-04-19T08:28:43.028Z,77.40
2018-04-19T08:31:10.457Z,80.10
2018-04-19T08:33:37.901Z,76.60
2018-04-19T08:36:05.338Z,75.90
2018-04-19T08:38:32.781Z,73.00
2018-04-19T08:41:00.995Z,73.10
2018-04-19T08:43:28.828Z,72.00
2018-04-19T08:45:56.665Z,74.50
2018-04-19T08:48:24.509Z,71.60
2018-04-19T08:50:51.996Z,69.60
2018-04-19T08:53:19.458Z,69.30
2018-04-19T08:55:47.640Z,66.70
2018-04-19T08:58:15.080Z,70.20
2018-04-19T09:00:43.322Z,72.00
2018-04-19T09:03:11.152Z,67.60
2018-04-19T09:05:38.609Z,65.90
2018-04-19T09:08:06.819Z,61.50
2018-04-19T09:10:34.256Z,61.70
2018-04-19T09:13:02.105Z,62.80
2018-04-19T09:15:29.529Z,61.60
2018-04-19T09:17:56.969Z,60.50
2018-04-19T09:20:24.412Z,61.80
2018-04-19T09:22:52.670Z,60.50
2018-04-19T09:25:20.113Z,61.40
2018-04-19T09:27:47.548Z,66.20
2018-04-19T09:30:14.980Z,60.20
2018-04-19T09:32:42.434Z,59.70
2018-04-19T09:35:10.632Z,55.50
2018-04-19T09:37:38.865Z,59.70
2018-04-19T09:40:06.297Z,54.50
2018-04-19T09:42:33.737Z,55.30
2018-04-19T09:45:01.203Z,54.10
2018-04-19T09:47:29.401Z,53.70
2018-04-19T09:49:56.837Z,53.10
2018-04-19T09:52:25.044Z,53.50
2018-04-19T09:54:53.244Z,51.60
2018-04-19T09:57:20.695Z,52.80
2018-04-19T09:59:48.126Z,49.40
2018-04-19T10:02:15.957Z,49.50
2018-04-19T10:04:46.166Z,48.00
2018-04-19T10:07:13.608Z,50.80
2018-04-19T10:09:41.804Z,48.20
2018-04-19T10:12:09.658Z,47.60
2018-04-19T10:14:37.093Z,47.10
2018-04-19T10:17:04.534Z,43.20
2018-04-19T10:19:31.960Z,45.00
2018-04-19T10:21:59.396Z,43.90
2018-04-19T10:24:26.838Z,43.50
2018-04-19T10:26:54.276Z,43.80
2018-04-19T10:29:22.104Z,41.00
2018-04-19T10:31:49.549Z,41.50
2018-04-19T10:34:21.997Z,43.30
2018-04-19T10:36:49.445Z,41.90
2018-04-19T10:39:16.872Z,41.80
2018-04-19T10:41:44.307Z,41.00
2018-04-19T10:44:12.510Z,42.80
2018-04-19T10:46:39.968Z,42.60
2018-04-19T10:49:08.161Z,42.50
2018-04-19T10:51:35.617Z,41.90
2018-04-19T10:54:03.817Z,41.70
2018-04-19T10:56:31.263Z,42.50
2018-04-19T10:58:58.703Z,40.90
2018-04-19T11:01:26.145Z,40.90
2018-04-19T11:03:53.593Z,42.20
2018-04-19T11:06:21.024Z,42.70
2018-04-19T11:08:48.462Z,39.80
2018-04-19T11:11:15.905Z,40.10
2018-04-19T11:13:43.341Z,40.80
2018-04-19T11:16:11.545Z,40.50
2018-04-19T11:18:38.989Z,40.10
2018-04-19T11:21:07.188Z,40.30
2018-04-19T11:23:35.409Z,41.20
2018-04-19T11:26:02.851Z,37.90
2018-04-19T11:28:30.285Z,39.00
2018-04-19T11:30:57.723Z,40.60
2018-04-19T11:33:25.165Z,37.10
2018-04-19T11:35:53.361Z,39.00
2018-04-19T11:38:21.189Z,42.30
2018-04-19T11:40:49.381Z,38.70
2018-04-19T11:43:17.589Z,41.60
2018-04-19T11:45:45.036Z,37.10
2018-04-19T11:48:13.249Z,38.90
2018-04-19T11:50:40.690Z,36.90
2018-04-19T11:53:08.897Z,38.20
2018-04-19T11:55:36.340Z,36.30
2018-04-19T11:58:04.546Z,38.00
2018-04-19T12:00:31.980Z,35.70
2018-04-19T12:02:59.425Z,34.90
2018-04-19T12:05:26.852Z,40.60
2018-04-19T12:07:54.297Z,40.80
2018-04-19T12:10:22.500Z,35.60
2018-04-19T12:12:50.347Z,36.60
2018-04-19T12:15:17.780Z,35.10
2018-04-19T12:17:45.641Z,34.90
2018-04-19T12:20:13.073Z,35.80
2018-04-19T12:22:41.276Z,33.70
2018-04-19T12:25:08.701Z,33.20
2018-04-19T12:27:36.164Z,32.80
2018-04-19T12:30:03.597Z,34.10
2018-04-19T12:32:31.057Z,36.10
2018-04-19T12:34:58.475Z,32.40
2018-04-19T12:37:25.973Z,36.20
2018-04-19T12:39:54.502Z,33.40
2018-04-19T12:42:22.708Z,35.90
2018-04-19T12:44:50.140Z,31.70
2018-04-19T12:47:18.344Z,33.60
2018-04-19T12:49:45.794Z,34.60
2018-04-19T12:52:13.233Z,33.20
2018-04-19T12:54:40.660Z,34.40
2018-04-19T12:57:08.513Z,31.50
2018-04-19T12:59:35.956Z,32.50
2018-04-19T13:02:03.401Z,33.60
2018-04-19T13:04:30.908Z,33.50
2018-04-19T13:06:58.344Z,33.90
2018-04-19T13:09:26.541Z,34.20
2018-04-19T13:11:54.761Z,32.30
2018-04-19T13:14:22.200Z,33.30
2018-04-19T13:16:49.640Z,30.80
2018-04-19T13:19:17.073Z,31.90
2018-04-19T13:21:44.905Z,32.00
2018-04-19T13:24:13.129Z,29.80
2018-04-19T13:26:40.579Z,31.90
2018-04-19T13:29:08.404Z,29.90
2018-04-19T13:31:35.867Z,27.60
2018-04-19T13:34:03.716Z,28.30
2018-04-19T13:36:31.166Z,28.30
2018-04-19T13:38:58.616Z,30.60
2018-04-19T13:41:26.025Z,27.00
2018-04-19T13:43:53.469Z,28.00
2018-04-19T13:46:20.903Z,26.60
2018-04-19T13:48:49.115Z,27.20
2018-04-19T13:51:16.548Z,25.70
2018-04-19T13:53:44.390Z,27.30
2018-04-19T13:56:11.823Z,26.30
2018-04-19T13:58:40.038Z,25.70
2018-04-19T14:01:07.489Z,25.70
2018-04-19T14:03:35.340Z,25.30
2018-04-19T14:06:03.542Z,27.20
2018-04-19T14:08:30.980Z,27.00
2018-04-19T14:10:58.417Z,27.10
2018-04-19T14:13:26.626Z,26.30
2018-04-19T14:15:54.471Z,26.00
2018-04-19T14:18:21.917Z,26.60
2018-04-19T14:20:49.372Z,26.80
2018-04-19T14:23:17.558Z,27.40
2018-04-19T14:25:45.389Z,25.40
2018-04-19T14:28:12.833Z,26.00
2018-04-19T14:30:40.262Z,26.00
2018-04-19T14:33:08.463Z,26.10
2018-04-19T14:35:35.890Z,26.10
2018-04-19T14:38:03.732Z,25.90
2018-04-19T14:40:31.161Z,25.10
2018-04-19T14:42:58.592Z,26.10
2018-04-19T14:45:26.033Z,26.10
2018-04-19T14:47:54.664Z,26.00
2018-04-19T14:50:22.099Z,26.00
2018-04-19T14:52:49.545Z,27.40
2018-04-19T14:55:17.038Z,25.20
2018-04-19T14:57:45.234Z,26.10
2018-04-19T15:00:12.624Z,25.30
2018-04-19T15:02:40.839Z,26.30
2018-04-19T15:05:09.026Z,26.00
2018-04-19T15:07:36.478Z,26.60
2018-04-19T15:10:04.694Z,25.10
2018-04-19T15:12:32.119Z,25.80
2018-04-19T15:14:59.555Z,25.40
2018-04-19T15:17:26.997Z,25.00
2018-04-19T15:19:55.241Z,25.30
2018-04-19T15:22:23.034Z,26.70
2018-04-19T15:24:50.858Z,25.70
2018-04-19T15:27:18.300Z,25.20
2018-04-19T15:29:45.742Z,26.10
2018-04-19T15:32:13.204Z,24.90
2018-04-19T15:34:41.426Z,25.30
2018-04-19T15:37:09.637Z,25.60
2018-04-19T15:39:37.068Z,26.00
2018-04-19T15:42:04.509Z,24.90
2018-04-19T15:44:32.701Z,28.00
2018-04-19T15:47:00.912Z,25.70
2018-04-19T15:49:29.112Z,25.90
2018-04-19T15:51:56.548Z,25.10
2018-04-19T15:54:24.012Z,26.20
2018-04-19T15:56:52.260Z,25.50
2018-04-19T15:59:19.661Z,27.10
2018-04-19T16:01:47.870Z,25.60
2018-04-19T16:04:15.309Z,26.20
2018-04-19T16:06:43.140Z,26.40
2018-04-19T16:09:11.349Z,27.00
2018-04-19T16:11:38.798Z,25.60
2018-04-19T16:14:06.228Z,26.70
2018-04-19T16:16:33.660Z,25.10
2018-04-19T16:19:01.119Z,25.90
2018-04-19T16:21:28.544Z,25.00
2018-04-19T16:23:56.053Z,24.80
2018-04-19T16:26:24.190Z,26.00
2018-04-19T16:28:51.630Z,26.00
2018-04-19T16:31:19.826Z,26.70
2018-04-19T16:33:47.656Z,26.30
2018-04-19T16:36:15.093Z,26.30
2018-04-19T16:38:42.570Z,27.40
2018-04-19T16:41:10.737Z,26.80
2018-04-19T16:43:38.717Z,27.20
2018-04-19T16:46:06.171Z,26.90
2018-04-19T16:48:34.385Z,28.40
2018-04-19T16:51:01.817Z,27.90
2018-04-19T16:53:30.017Z,28.90
2018-04-19T16:55:57.488Z,28.90
2018-04-19T16:58:24.953Z,29.30
2018-04-19T17:00:53.456Z,29.10
2018-04-19T17:03:21.293Z,28.60
2018-04-19T17:05:49.269Z,30.00
2018-04-19T17:08:16.704Z,30.90
2018-04-19T17:10:44.160Z,31.70
2018-04-19T17:13:11.617Z,31.30
2018-04-19T17:15:39.031Z,30.70
2018-04-19T17:18:06.472Z,32.30
2018-04-19T17:20:33.896Z,34.00
2018-04-19T17:23:02.109Z,35.50
2018-04-19T17:25:29.537Z,34.70
2018-04-19T17:27:57.775Z,35.20
2018-04-19T17:30:25.924Z,37.60
2018-04-19T17:32:53.886Z,35.80
2018-04-19T17:35:21.316Z,37.90
2018-04-19T17:37:48.757Z,39.90
2018-04-19T17:40:16.200Z,40.90
2018-04-19T17:42:44.410Z,39.90
2018-04-19T17:45:11.847Z,41.90
2018-04-19T17:47:40.077Z,43.80
2018-04-19T17:50:07.553Z,44.90
2018-04-19T17:52:34.981Z,43.70
2018-04-19T17:55:03.188Z,46.80
2018-04-19T17:57:31.013Z,47.60
2018-04-19T17:59:58.444Z,48.70
2018-04-19T18:02:26.645Z,50.60
2018-04-19T18:04:54.093Z,52.10
2018-04-19T18:07:21.533Z,53.30
2018-04-19T18:09:48.989Z,53.60
2018-04-19T18:12:17.198Z,55.10
2018-04-19T18:14:44.628Z,56.10
2018-04-19T18:17:12.065Z,57.10
2018-04-19T18:19:39.514Z,60.40
2018-04-19T18:22:06.940Z,62.10
2018-04-19T18:24:35.144Z,64.10
2018-04-19T18:27:03.340Z,64.40
2018-04-19T18:29:30.781Z,67.80
2018-04-19T18:31:58.980Z,70.50
2018-04-19T18:34:27.177Z,73.00
2018-04-19T18:36:54.637Z,74.40
2018-04-19T18:39:22.453Z,74.50
2018-04-19T18:41:50.661Z,73.30
2018-04-19T18:44:18.093Z,76.80
2018-04-19T18:46:45.530Z,79.10
2018-04-19T18:49:13.737Z,75.10
2018-04-19T18:51:41.188Z,76.80
2018-04-19T18:54:09.385Z,80.30
2018-04-19T18:56:36.828Z,79.80
2018-04-19T18:59:04.250Z,77.90
2018-04-19T19:01:31.736Z,79.90
2018-04-19T19:03:59.592Z,82.50
2018-04-19T19:06:27.420Z,82.90
2018-04-19T19:08:55.642Z,85.10
2018-04-19T19:11:23.071Z,86.10
2018-04-19T19:13:51.302Z,88.20
2018-04-19T19:18:59.965Z,89.60
2018-04-19T19:21:28.552Z,90.90
2018-04-19T19:23:56.018Z,91.30
2018-04-19T19:26:24.237Z,92.20
2018-04-19T19:28:52.073Z,91.60
2018-04-19T19:31:19.492Z,91.70
2018-04-19T19:33:46.929Z,92.50
2018-04-19T19:36:14.365Z,93.20
2018-04-19T19:38:42.212Z,93.60
2018-04-19T19:41:10.064Z,93.80
2018-04-19T19:43:37.498Z,94.60
2018-04-19T19:46:04.929Z,94.60
2018-04-19T19:48:32.759Z,93.90
2018-04-19T19:51:00.946Z,94.50
2018-04-19T19:53:28.397Z,94.90
2018-04-19T19:55:56.597Z,95.60
2018-04-19T19:58:24.032Z,95.20
2018-04-19T20:00:51.462Z,95.00
2018-04-19T20:03:18.918Z,95.80
2018-04-19T20:05:46.386Z,94.70
2018-04-19T20:08:13.789Z,96.10
2018-04-19T20:10:42.739Z,96.90
2018-04-19T20:13:10.950Z,96.80
2018-04-19T20:15:38.377Z,97.20
2018-04-19T20:18:05.829Z,97.80
2018-04-19T20:20:33.253Z,98.80
2018-04-19T20:23:01.088Z,98.90
2018-04-19T20:25:28.514Z,99.00
2018-04-19T20:27:56.717Z,99.10
2018-04-19T20:35:21.748Z,97.60
2018-04-19T20:37:49.186Z,97.60
2018-04-19T20:40:16.614Z,98.60
2018-04-19T20:42:44.817Z,98.80
2018-04-19T20:45:12.254Z,98.80
2018-04-19T20:47:39.695Z,99.80
2018-04-19T20:50:07.140Z,99.80
2018-04-19T20:52:34.592Z,99.50
2018-04-19T20:55:02.777Z,99.90
2018-04-19T20:57:30.213Z,98.10
2018-04-19T20:59:58.408Z,98.90
2018-04-19T21:02:26.604Z,98.70
2018-04-19T21:04:54.053Z,98.80
2018-04-19T21:07:21.487Z,99.40
2018-04-19T21:09:48.914Z,98.70
2018-04-19T21:12:16.385Z,98.10
2018-04-19T21:14:43.816Z,98.40
2018-04-19T21:17:12.042Z,99.00
2018-04-19T21:19:39.470Z,98.80
2018-04-19T21:22:06.921Z,98.70
2018-04-19T21:24:34.340Z,98.40
2018-04-19T21:27:01.786Z,98.70
2018-04-19T21:29:29.625Z,99.80
2018-04-19T21:31:57.049Z,99.90
2018-04-19T21:34:24.490Z,99.90
2018-04-19T21:36:52.311Z,99.90
2018-04-19T21:39:19.744Z,99.90
2018-04-19T21:41:47.178Z,99.90
2018-04-19T21:44:14.609Z,99.90
2018-04-19T21:46:42.800Z,99.90
2018-04-19T21:49:10.242Z,99.90
2018-04-19T21:51:37.673Z,99.90
2018-04-19T21:54:05.110Z,99.90
2018-04-19T21:56:32.557Z,99.90
2018-04-19T21:59:00.644Z,99.90
2018-04-19T22:01:28.062Z,99.90
2018-04-19T22:03:55.488Z,99.90
2018-04-19T22:06:23.314Z,99.90
2018-04-19T22:08:50.791Z,99.90
2018-04-19T22:11:18.193Z,99.90
2018-04-19T22:13:45.625Z,99.90
2018-04-19T22:16:13.817Z,99.90
2018-04-19T22:18:42.031Z,99.90
2018-04-19T22:21:09.856Z,99.90
2018-04-19T22:23:37.309Z,99.90
2018-04-19T22:26:04.738Z,99.90
2018-04-19T22:28:32.181Z,99.90
2018-04-19T22:31:00.368Z,99.90
2018-04-19T22:33:27.808Z,99.90
2018-04-19T22:35:55.240Z,99.90
2018-04-19T22:38:22.678Z,99.90
2018-04-19T22:40:50.866Z,99.90
2018-04-19T22:43:18.300Z,99.90
2018-04-19T22:45:45.729Z,99.90
2018-04-19T22:48:13.181Z,99.90
2018-04-19T22:50:40.612Z,99.90
2018-04-19T22:53:08.820Z,99.90
2018-04-19T22:55:36.648Z,99.90
2018-04-19T22:58:04.079Z,99.90
2018-04-19T23:00:31.505Z,99.90
2018-04-19T23:02:59.704Z,99.90
2018-04-19T23:05:27.902Z,99.90
2018-04-19T23:07:56.116Z,99.90
2018-04-19T23:10:23.538Z,99.90
2018-04-19T23:12:51.742Z,99.90
2018-04-19T23:15:19.181Z,99.90
2018-04-19T23:17:46.618Z,99.90
2018-04-19T23:20:14.083Z,99.90
2018-04-19T23:22:41.518Z,99.90
2018-04-19T23:25:09.010Z,99.90
2018-04-19T23:27:36.392Z,99.90
2018-04-19T23:30:03.822Z,99.90
2018-04-19T23:32:31.265Z,99.90
2018-04-19T23:35:00.193Z,99.90
2018-04-19T23:37:27.650Z,99.90
2018-04-19T23:39:55.857Z,99.90
2018-04-19T23:42:23.286Z,99.90
2018-04-19T23:44:51.489Z,99.90
2018-04-19T23:47:18.912Z,99.90
2018-04-19T23:49:46.357Z,99.90
2018-04-19T23:52:13.789Z,99.90
2018-04-19T23:54:41.234Z,99.90
2018-04-19T23:57:08.668Z,99.90
2018-04-19T23:59:36.101Z,99.90
